sensor_id;sensor_type;location;lat;lon;timestamp;temperature;humidity
16267;DHT22;8241;48.786;9.250;2023-02-01T00:01:34;4.70;99.90
16267;DHT22;8241;48.786;9.250;2023-02-01T00:04:01;4.70;99.90
16267;DHT22;8241;48.786;9.250;2023-02-01T00:06:28;4.60;99.90
16267;DHT22;8241;48.786;9.250;2023-02-01T00:09:00;4.80;99.90
16267;DHT22;8241;48.786;9.250;2023-02-01T00:11:27;4.70;99.90
16267;DHT22;8241;48.786;9.250;2023-02-01T00:13:54;4.70;99.90
16267;DHT22;8241;48.786;9.250;2023-02-01T00:16:24;4.70;99.90
16267;DHT22;8241;48.786;9.250;2023-02-01T00:18:57;4.80;99.90
16267;DHT22;8241;48.786;9.250;2023-02-01T00:21:27;4.90;99.90
16267;DHT22;8241;48.786;9.250;2023-02-01T00:24:02;4.80;99.90
16267;DHT22;8241;48.786;9.250;2023-02-01T00:26:33;4.70;99.90
16267;DHT22;8241;48.786;9.250;2023-02-01T00:29:05;4.60;99.90
16267;DHT22;8241;48.786;9.250;2023-02-01T00:31:33;4.70;99.90
16267;DHT22;8241;48.786;9.250;2023-02-01T00:34:00;4.60;99.90
16267;DHT22;8241;48.786;9.250;2023-02-01T00:36:27;4.60;99.90
16267;DHT22;8241;48.786;9.250;2023-02-01T00:38:55;4.70;99.90
16267;DHT22;8241;48.786;9.250;2023-02-01T00:41:23;4.60;99.90
16267;DHT22;8241;48.786;9.250;2023-02-01T00:43:50;4.60;99.90
16267;DHT22;8241;48.786;9.250;2023-02-01T00:46:18;4.60;99.90
16267;DHT22;8241;48.786;9.250;2023-02-01T00:48:48;4.60;99.90
16267;DHT22;8241;48.786;9.250;2023-02-01T00:51:19;4.60;99.90
16267;DHT22;8241;48.786;9.250;2023-02-01T00:53:46;4.70;99.90
16267;DHT22;8241;48.786;9.250;2023-02-01T00:56:14;4.70;99.90
16267;DHT22;8241;48.786;9.250;2023-02-01T00:58:41;4.70;99.90
16267;DHT22;8241;48.786;9.250;2023-02-01T01:01:14;4.70;99.90
16267;DHT22;8241;48.786;9.250;2023-02-01T01:03:43;4.70;99.90
16267;DHT22;8241;48.786;9.250;2023-02-01T01:06:14;4.70;99.90
16267;DHT22;8241;48.786;9.250;2023-02-01T01:08:44;4.70;99.90
16267;DHT22;8241;48.786;9.250;2023-02-01T01:11:13;4.70;99.90
16267;DHT22;8241;48.786;9.250;2023-02-01T01:13:45;4.70;99.90
16267;DHT22;8241;48.786;9.250;2023-02-01T01:16:13;4.70;99.90
16267;DHT22;8241;48.786;9.250;2023-02-01T01:18:41;4.70;99.90
16267;DHT22;8241;48.786;9.250;2023-02-01T01:21:15;4.70;99.90
16267;DHT22;8241;48.786;9.250;2023-02-01T01:23:43;4.60;99.90
16267;DHT22;8241;48.786;9.250;2023-02-01T01:26:14;4.60;99.90
16267;DHT22;8241;48.786;9.250;2023-02-01T01:28:41;4.60;99.90
16267;DHT22;8241;48.786;9.250;2023-02-01T01:31:11;4.70;99.90
16267;DHT22;8241;48.786;9.250;2023-02-01T01:33:40;4.60;99.90
16267;DHT22;8241;48.786;9.250;2023-02-01T01:36:11;4.60;99.90
16267;DHT22;8241;48.786;9.250;2023-02-01T01:38:41;4.70;99.90
16267;DHT22;8241;48.786;9.250;2023-02-01T01:41:15;4.70;99.90
16267;DHT22;8241;48.786;9.250;2023-02-01T01:43:48;4.70;99.90
16267;DHT22;8241;48.786;9.250;2023-02-01T01:46:18;4.70;99.90
16267;DHT22;8241;48.786;9.250;2023-02-01T01:48:47;4.70;99.90
16267;DHT22;8241;48.786;9.250;2023-02-01T01:51:17;4.70;99.90
16267;DHT22;8241;48.786;9.250;2023-02-01T01:53:55;4.70;99.90
16267;DHT22;8241;48.786;9.250;2023-02-01T01:56:26;4.70;99.90
16267;DHT22;8241;48.786;9.250;2023-02-01T01:58:58;4.70;99.90
16267;DHT22;8241;48.786;9.250;2023-02-01T02:01:27;4.70;99.90
16267;DHT22;8241;48.786;9.250;2023-02-01T02:03:56;4.70;99.90
16267;DHT22;8241;48.786;9.250;2023-02-01T02:06:40;4.70;99.90
16267;DHT22;8241;48.786;9.250;2023-02-01T02:09:12;4.70;99.90
16267;DHT22;8241;48.786;9.250;2023-02-01T02:11:39;4.70;99.90
16267;DHT22;8241;48.786;9.250;2023-02-01T02:14:09;4.70;99.90
16267;DHT22;8241;48.786;9.250;2023-02-01T02:16:50;4.70;99.90
16267;DHT22;8241;48.786;9.250;2023-02-01T02:19:49;4.70;99.90
16267;DHT22;8241;48.786;9.250;2023-02-01T02:22:45;4.70;99.90
16267;DHT22;8241;48.786;9.250;2023-02-01T02:28:29;4.70;99.90
16267;DHT22;8241;48.786;9.250;2023-02-01T02:31:14;4.70;99.90
16267;DHT22;8241;48.786;9.250;2023-02-01T02:33:59;4.70;99.90
16267;DHT22;8241;48.786;9.250;2023-02-01T02:36:34;4.70;99.90
16267;DHT22;8241;48.786;9.250;2023-02-01T02:39:07;4.70;99.90
16267;DHT22;8241;48.786;9.250;2023-02-01T02:41:42;4.70;99.90
16267;DHT22;8241;48.786;9.250;2023-02-01T02:44:35;4.70;99.90
16267;DHT22;8241;48.786;9.250;2023-02-01T02:47:28;4.70;99.90
16267;DHT22;8241;48.786;9.250;2023-02-01T02:50:09;4.80;99.90
16267;DHT22;8241;48.786;9.250;2023-02-01T02:53:00;4.70;99.90
16267;DHT22;8241;48.786;9.250;2023-02-01T02:55:47;4.80;99.90
16267;DHT22;8241;48.786;9.250;2023-02-01T02:58:17;4.80;99.90
16267;DHT22;8241;48.786;9.250;2023-02-01T03:01:03;4.80;99.90
16267;DHT22;8241;48.786;9.250;2023-02-01T03:03:48;4.90;99.90
16267;DHT22;8241;48.786;9.250;2023-02-01T03:06:38;4.80;99.90
16267;DHT22;8241;48.786;9.250;2023-02-01T03:09:10;4.80;99.90
16267;DHT22;8241;48.786;9.250;2023-02-01T03:11:41;4.80;99.90
16267;DHT22;8241;48.786;9.250;2023-02-01T03:14:29;4.80;99.90
16267;DHT22;8241;48.786;9.250;2023-02-01T03:17:00;4.80;99.90
16267;DHT22;8241;48.786;9.250;2023-02-01T03:19:31;4.80;99.90
16267;DHT22;8241;48.786;9.250;2023-02-01T03:22:03;4.80;99.90
16267;DHT22;8241;48.786;9.250;2023-02-01T03:24:33;4.80;99.90
16267;DHT22;8241;48.786;9.250;2023-02-01T03:27:05;4.90;99.90
16267;DHT22;8241;48.786;9.250;2023-02-01T03:29:40;4.90;99.90
16267;DHT22;8241;48.786;9.250;2023-02-01T03:32:08;4.80;99.90
16267;DHT22;8241;48.786;9.250;2023-02-01T03:34:37;4.80;99.90
16267;DHT22;8241;48.786;9.250;2023-02-01T03:37:08;4.80;99.90
16267;DHT22;8241;48.786;9.250;2023-02-01T03:39:38;4.80;99.90
16267;DHT22;8241;48.786;9.250;2023-02-01T03:42:10;4.80;99.90
16267;DHT22;8241;48.786;9.250;2023-02-01T03:44:42;4.80;99.90
16267;DHT22;8241;48.786;9.250;2023-02-01T03:47:14;4.70;99.90
16267;DHT22;8241;48.786;9.250;2023-02-01T03:49:49;4.80;99.90
16267;DHT22;8241;48.786;9.250;2023-02-01T03:52:21;4.80;99.90
16267;DHT22;8241;48.786;9.250;2023-02-01T03:54:50;4.80;99.90
16267;DHT22;8241;48.786;9.250;2023-02-01T03:57:22;4.90;99.90
16267;DHT22;8241;48.786;9.250;2023-02-01T03:59:50;4.80;99.90
16267;DHT22;8241;48.786;9.250;2023-02-01T04:02:17;4.90;99.90
16267;DHT22;8241;48.786;9.250;2023-02-01T04:04:44;4.80;99.90
16267;DHT22;8241;48.786;9.250;2023-02-01T04:07:14;4.90;99.90
16267;DHT22;8241;48.786;9.250;2023-02-01T04:09:43;4.90;99.90
16267;DHT22;8241;48.786;9.250;2023-02-01T04:12:10;4.90;99.90
16267;DHT22;8241;48.786;9.250;2023-02-01T04:14:37;4.90;99.90
16267;DHT22;8241;48.786;9.250;2023-02-01T04:17:04;4.90;99.90
16267;DHT22;8241;48.786;9.250;2023-02-01T04:19:31;4.90;99.90
16267;DHT22;8241;48.786;9.250;2023-02-01T04:21:58;4.90;99.90
16267;DHT22;8241;48.786;9.250;2023-02-01T04:24:25;4.90;99.90
16267;DHT22;8241;48.786;9.250;2023-02-01T04:26:53;4.90;99.90
16267;DHT22;8241;48.786;9.250;2023-02-01T04:29:21;4.90;99.90
16267;DHT22;8241;48.786;9.250;2023-02-01T04:31:48;4.90;99.90
16267;DHT22;8241;48.786;9.250;2023-02-01T04:34:16;4.90;99.90
16267;DHT22;8241;48.786;9.250;2023-02-01T04:36:43;5.00;99.90
16267;DHT22;8241;48.786;9.250;2023-02-01T04:39:10;5.00;99.90
16267;DHT22;8241;48.786;9.250;2023-02-01T04:41:36;5.00;99.90
16267;DHT22;8241;48.786;9.250;2023-02-01T04:44:05;4.90;99.90
16267;DHT22;8241;48.786;9.250;2023-02-01T04:46:32;4.90;99.90
16267;DHT22;8241;48.786;9.250;2023-02-01T04:48:59;4.90;99.90
16267;DHT22;8241;48.786;9.250;2023-02-01T04:51:26;4.90;99.90
16267;DHT22;8241;48.786;9.250;2023-02-01T04:53:53;4.90;99.90
16267;DHT22;8241;48.786;9.250;2023-02-01T04:56:21;4.90;99.90
16267;DHT22;8241;48.786;9.250;2023-02-01T04:58:48;4.90;99.90
16267;DHT22;8241;48.786;9.250;2023-02-01T05:01:17;5.00;99.90
16267;DHT22;8241;48.786;9.250;2023-02-01T05:03:44;5.00;99.90
16267;DHT22;8241;48.786;9.250;2023-02-01T05:06:10;5.00;99.90
16267;DHT22;8241;48.786;9.250;2023-02-01T05:08:37;5.00;99.90
16267;DHT22;8241;48.786;9.250;2023-02-01T05:11:05;5.00;99.90
16267;DHT22;8241;48.786;9.250;2023-02-01T05:13:32;5.00;99.90
16267;DHT22;8241;48.786;9.250;2023-02-01T05:16:17;5.00;99.90
16267;DHT22;8241;48.786;9.250;2023-02-01T05:18:44;5.00;99.90
16267;DHT22;8241;48.786;9.250;2023-02-01T05:21:11;5.00;99.90
16267;DHT22;8241;48.786;9.250;2023-02-01T05:23:38;5.00;99.90
16267;DHT22;8241;48.786;9.250;2023-02-01T05:26:19;5.00;99.90
16267;DHT22;8241;48.786;9.250;2023-02-01T05:28:46;5.00;99.90
16267;DHT22;8241;48.786;9.250;2023-02-01T05:31:13;5.00;99.90
16267;DHT22;8241;48.786;9.250;2023-02-01T05:33:41;5.00;99.90
16267;DHT22;8241;48.786;9.250;2023-02-01T05:36:09;5.10;99.90
16267;DHT22;8241;48.786;9.250;2023-02-01T05:38:36;5.10;99.90
16267;DHT22;8241;48.786;9.250;2023-02-01T05:41:03;5.10;99.90
16267;DHT22;8241;48.786;9.250;2023-02-01T05:43:30;5.00;99.90
16267;DHT22;8241;48.786;9.250;2023-02-01T05:45:57;5.10;99.90
16267;DHT22;8241;48.786;9.250;2023-02-01T05:48:24;5.10;99.90
16267;DHT22;8241;48.786;9.250;2023-02-01T05:50:53;5.10;99.90
16267;DHT22;8241;48.786;9.250;2023-02-01T05:53:20;5.10;99.90
16267;DHT22;8241;48.786;9.250;2023-02-01T05:55:47;5.10;99.90
16267;DHT22;8241;48.786;9.250;2023-02-01T05:58:13;5.10;99.90
16267;DHT22;8241;48.786;9.250;2023-02-01T06:00:40;5.10;99.90
16267;DHT22;8241;48.786;9.250;2023-02-01T06:03:09;5.10;99.90
16267;DHT22;8241;48.786;9.250;2023-02-01T06:05:37;5.10;99.90
16267;DHT22;8241;48.786;9.250;2023-02-01T06:08:05;5.10;99.90
16267;DHT22;8241;48.786;9.250;2023-02-01T06:10:33;5.10;99.90
16267;DHT22;8241;48.786;9.250;2023-02-01T06:13:01;5.10;99.90
16267;DHT22;8241;48.786;9.250;2023-02-01T06:15:29;5.00;99.90
16267;DHT22;8241;48.786;9.250;2023-02-01T06:17:58;5.00;99.90
16267;DHT22;8241;48.786;9.250;2023-02-01T06:20:25;4.90;99.90
16267;DHT22;8241;48.786;9.250;2023-02-01T06:22:52;4.90;99.90
16267;DHT22;8241;48.786;9.250;2023-02-01T06:25:21;4.90;99.90
16267;DHT22;8241;48.786;9.250;2023-02-01T06:27:51;4.90;99.90
16267;DHT22;8241;48.786;9.250;2023-02-01T06:30:18;4.90;99.90
16267;DHT22;8241;48.786;9.250;2023-02-01T06:32:50;4.90;99.90
16267;DHT22;8241;48.786;9.250;2023-02-01T06:35:19;4.90;99.90
16267;DHT22;8241;48.786;9.250;2023-02-01T06:37:46;4.90;99.90
16267;DHT22;8241;48.786;9.250;2023-02-01T06:40:16;5.00;99.90
16267;DHT22;8241;48.786;9.250;2023-02-01T06:42:44;5.00;99.90
16267;DHT22;8241;48.786;9.250;2023-02-01T06:45:11;5.20;99.90
16267;DHT22;8241;48.786;9.250;2023-02-01T06:47:38;5.30;99.90
16267;DHT22;8241;48.786;9.250;2023-02-01T06:50:06;5.30;99.90
16267;DHT22;8241;48.786;9.250;2023-02-01T06:52:36;5.40;99.90
16267;DHT22;8241;48.786;9.250;2023-02-01T06:55:11;5.30;99.90
16267;DHT22;8241;48.786;9.250;2023-02-01T06:57:38;5.30;99.90
16267;DHT22;8241;48.786;9.250;2023-02-01T07:00:12;5.40;99.90
16267;DHT22;8241;48.786;9.250;2023-02-01T07:02:44;5.30;99.90
16267;DHT22;8241;48.786;9.250;2023-02-01T07:05:35;5.30;99.90
16267;DHT22;8241;48.786;9.250;2023-02-01T07:08:03;5.30;99.90
16267;DHT22;8241;48.786;9.250;2023-02-01T07:10:31;5.40;99.90
16267;DHT22;8241;48.786;9.250;2023-02-01T07:13:09;5.50;99.90
16267;DHT22;8241;48.786;9.250;2023-02-01T07:15:41;5.60;99.90
16267;DHT22;8241;48.786;9.250;2023-02-01T07:18:09;5.60;99.90
16267;DHT22;8241;48.786;9.250;2023-02-01T07:20:50;5.60;99.90
16267;DHT22;8241;48.786;9.250;2023-02-01T07:23:22;5.60;99.90
16267;DHT22;8241;48.786;9.250;2023-02-01T07:25:53;5.70;99.90
16267;DHT22;8241;48.786;9.250;2023-02-01T07:28:21;5.60;99.90
16267;DHT22;8241;48.786;9.250;2023-02-01T07:30:53;5.60;99.90
16267;DHT22;8241;48.786;9.250;2023-02-01T07:33:22;5.70;99.90
16267;DHT22;8241;48.786;9.250;2023-02-01T07:35:49;5.70;99.90
16267;DHT22;8241;48.786;9.250;2023-02-01T07:38:19;5.80;99.90
16267;DHT22;8241;48.786;9.250;2023-02-01T07:40:57;5.70;99.90
16267;DHT22;8241;48.786;9.250;2023-02-01T07:43:24;5.80;99.90
16267;DHT22;8241;48.786;9.250;2023-02-01T07:45:52;5.70;99.90
16267;DHT22;8241;48.786;9.250;2023-02-01T07:48:23;5.70;99.90
16267;DHT22;8241;48.786;9.250;2023-02-01T07:50:57;5.70;99.90
16267;DHT22;8241;48.786;9.250;2023-02-01T07:53:25;5.70;99.90
16267;DHT22;8241;48.786;9.250;2023-02-01T07:55:52;5.80;99.90
16267;DHT22;8241;48.786;9.250;2023-02-01T07:58:19;5.80;99.90
16267;DHT22;8241;48.786;9.250;2023-02-01T08:00:47;5.80;99.90
16267;DHT22;8241;48.786;9.250;2023-02-01T08:03:37;5.80;99.90
16267;DHT22;8241;48.786;9.250;2023-02-01T08:06:06;5.70;99.90
16267;DHT22;8241;48.786;9.250;2023-02-01T08:08:33;5.70;99.90
16267;DHT22;8241;48.786;9.250;2023-02-01T08:11:01;5.70;99.90
16267;DHT22;8241;48.786;9.250;2023-02-01T08:13:30;5.70;99.90
16267;DHT22;8241;48.786;9.250;2023-02-01T08:16:06;5.70;99.90
16267;DHT22;8241;48.786;9.250;2023-02-01T08:18:36;5.80;99.90
16267;DHT22;8241;48.786;9.250;2023-02-01T08:21:05;5.70;99.90
16267;DHT22;8241;48.786;9.250;2023-02-01T08:23:34;5.70;99.90
16267;DHT22;8241;48.786;9.250;2023-02-01T08:26:10;5.80;99.90
16267;DHT22;8241;48.786;9.250;2023-02-01T08:28:41;5.80;99.90
16267;DHT22;8241;48.786;9.250;2023-02-01T08:31:26;5.80;99.90
16267;DHT22;8241;48.786;9.250;2023-02-01T08:33:56;5.70;99.90
16267;DHT22;8241;48.786;9.250;2023-02-01T08:36:25;5.60;99.90
16267;DHT22;8241;48.786;9.250;2023-02-01T08:38:54;5.70;99.90
16267;DHT22;8241;48.786;9.250;2023-02-01T08:41:23;5.70;99.90
16267;DHT22;8241;48.786;9.250;2023-02-01T08:43:52;5.70;99.90
16267;DHT22;8241;48.786;9.250;2023-02-01T08:46:20;5.70;99.90
16267;DHT22;8241;48.786;9.250;2023-02-01T08:48:48;5.70;99.90
16267;DHT22;8241;48.786;9.250;2023-02-01T08:51:34;5.70;99.90
16267;DHT22;8241;48.786;9.250;2023-02-01T08:54:09;5.70;99.90
16267;DHT22;8241;48.786;9.250;2023-02-01T08:56:36;5.90;99.90
16267;DHT22;8241;48.786;9.250;2023-02-01T08:59:04;5.90;99.90
16267;DHT22;8241;48.786;9.250;2023-02-01T09:01:32;5.90;99.90
16267;DHT22;8241;48.786;9.250;2023-02-01T09:03:59;6.00;99.90
16267;DHT22;8241;48.786;9.250;2023-02-01T09:06:29;6.00;99.90
16267;DHT22;8241;48.786;9.250;2023-02-01T09:09:00;6.00;99.90
16267;DHT22;8241;48.786;9.250;2023-02-01T09:11:32;6.10;99.90
16267;DHT22;8241;48.786;9.250;2023-02-01T09:14:07;6.20;99.90
16267;DHT22;8241;48.786;9.250;2023-02-01T09:16:37;6.20;99.90
16267;DHT22;8241;48.786;9.250;2023-02-01T09:19:04;6.20;99.90
16267;DHT22;8241;48.786;9.250;2023-02-01T09:21:34;6.20;99.90
16267;DHT22;8241;48.786;9.250;2023-02-01T09:24:02;6.30;99.90
16267;DHT22;8241;48.786;9.250;2023-02-01T09:26:30;6.40;99.90
16267;DHT22;8241;48.786;9.250;2023-02-01T09:28:57;6.40;99.90
16267;DHT22;8241;48.786;9.250;2023-02-01T09:31:24;6.40;99.90
16267;DHT22;8241;48.786;9.250;2023-02-01T09:33:51;6.50;99.90
16267;DHT22;8241;48.786;9.250;2023-02-01T09:36:18;6.50;99.90
16267;DHT22;8241;48.786;9.250;2023-02-01T09:38:47;6.50;99.90
16267;DHT22;8241;48.786;9.250;2023-02-01T09:41:24;6.50;99.90
16267;DHT22;8241;48.786;9.250;2023-02-01T09:44:14;6.50;99.90
16267;DHT22;8241;48.786;9.250;2023-02-01T09:46:45;6.60;99.90
16267;DHT22;8241;48.786;9.250;2023-02-01T09:49:15;6.60;99.90
16267;DHT22;8241;48.786;9.250;2023-02-01T09:51:51;6.70;99.90
16267;DHT22;8241;48.786;9.250;2023-02-01T09:54:26;6.70;99.90
16267;DHT22;8241;48.786;9.250;2023-02-01T09:56:56;6.80;99.90
16267;DHT22;8241;48.786;9.250;2023-02-01T09:59:31;6.90;99.90
16267;DHT22;8241;48.786;9.250;2023-02-01T10:02:02;6.90;99.90
16267;DHT22;8241;48.786;9.250;2023-02-01T10:04:41;6.80;99.90
16267;DHT22;8241;48.786;9.250;2023-02-01T10:07:18;6.80;99.90
16267;DHT22;8241;48.786;9.250;2023-02-01T10:10:03;6.80;99.90
16267;DHT22;8241;48.786;9.250;2023-02-01T10:13:06;6.90;99.90
16267;DHT22;8241;48.786;9.250;2023-02-01T10:15:52;6.90;99.90
16267;DHT22;8241;48.786;9.250;2023-02-01T10:18:36;6.80;99.90
16267;DHT22;8241;48.786;9.250;2023-02-01T10:21:17;6.80;99.90
16267;DHT22;8241;48.786;9.250;2023-02-01T10:24:04;6.80;99.90
16267;DHT22;8241;48.786;9.250;2023-02-01T10:26:37;6.90;99.90
16267;DHT22;8241;48.786;9.250;2023-02-01T10:29:15;6.90;99.90
16267;DHT22;8241;48.786;9.250;2023-02-01T10:31:43;7.00;99.90
16267;DHT22;8241;48.786;9.250;2023-02-01T10:34:17;7.10;99.90
16267;DHT22;8241;48.786;9.250;2023-02-01T10:36:53;7.20;99.90
16267;DHT22;8241;48.786;9.250;2023-02-01T10:39:23;7.20;99.80
16267;DHT22;8241;48.786;9.250;2023-02-01T10:41:52;7.20;99.50
16267;DHT22;8241;48.786;9.250;2023-02-01T10:44:25;7.20;99.30
16267;DHT22;8241;48.786;9.250;2023-02-01T10:46:54;7.20;99.40
16267;DHT22;8241;48.786;9.250;2023-02-01T10:49:26;7.10;99.40
16267;DHT22;8241;48.786;9.250;2023-02-01T10:52:02;7.20;99.20
16267;DHT22;8241;48.786;9.250;2023-02-01T10:54:35;7.20;99.40
16267;DHT22;8241;48.786;9.250;2023-02-01T10:57:08;7.20;99.20
16267;DHT22;8241;48.786;9.250;2023-02-01T10:59:38;7.20;99.30
16267;DHT22;8241;48.786;9.250;2023-02-01T11:02:19;7.20;99.10
16267;DHT22;8241;48.786;9.250;2023-02-01T11:04:57;7.20;99.10
16267;DHT22;8241;48.786;9.250;2023-02-01T11:07:26;7.20;98.90
16267;DHT22;8241;48.786;9.250;2023-02-01T11:09:56;7.30;99.00
16267;DHT22;8241;48.786;9.250;2023-02-01T11:12:35;7.30;99.00
16267;DHT22;8241;48.786;9.250;2023-02-01T11:15:13;7.30;98.60
16267;DHT22;8241;48.786;9.250;2023-02-01T11:17:43;7.30;98.40
16267;DHT22;8241;48.786;9.250;2023-02-01T11:20:14;7.20;98.40
16267;DHT22;8241;48.786;9.250;2023-02-01T11:22:46;7.20;98.60
16267;DHT22;8241;48.786;9.250;2023-02-01T11:25:16;7.20;98.70
16267;DHT22;8241;48.786;9.250;2023-02-01T11:27:46;7.20;98.10
16267;DHT22;8241;48.786;9.250;2023-02-01T11:30:17;7.20;98.30
16267;DHT22;8241;48.786;9.250;2023-02-01T11:32:47;7.20;98.20
16267;DHT22;8241;48.786;9.250;2023-02-01T11:35:19;7.20;98.00
16267;DHT22;8241;48.786;9.250;2023-02-01T11:37:55;7.10;98.10
16267;DHT22;8241;48.786;9.250;2023-02-01T11:40:27;7.10;98.30
16267;DHT22;8241;48.786;9.250;2023-02-01T11:42:58;7.20;98.00
16267;DHT22;8241;48.786;9.250;2023-02-01T11:45:27;7.20;98.00
16267;DHT22;8241;48.786;9.250;2023-02-01T11:47:56;7.30;98.00
16267;DHT22;8241;48.786;9.250;2023-02-01T11:50:36;7.30;97.40
16267;DHT22;8241;48.786;9.250;2023-02-01T11:53:27;7.30;97.40
16267;DHT22;8241;48.786;9.250;2023-02-01T11:56:05;7.30;97.20
16267;DHT22;8241;48.786;9.250;2023-02-01T11:58:59;7.20;97.40
16267;DHT22;8241;48.786;9.250;2023-02-01T12:01:57;7.30;97.40
16267;DHT22;8241;48.786;9.250;2023-02-01T12:04:53;7.20;97.10
16267;DHT22;8241;48.786;9.250;2023-02-01T12:07:53;7.40;97.20
16267;DHT22;8241;48.786;9.250;2023-02-01T12:10:41;7.60;96.60
16267;DHT22;8241;48.786;9.250;2023-02-01T12:13:22;7.50;96.40
16267;DHT22;8241;48.786;9.250;2023-02-01T12:16:06;7.50;96.60
16267;DHT22;8241;48.786;9.250;2023-02-01T12:19:00;7.40;96.20
16267;DHT22;8241;48.786;9.250;2023-02-01T12:21:46;7.40;96.20
16267;DHT22;8241;48.786;9.250;2023-02-01T12:24:38;7.30;96.40
16267;DHT22;8241;48.786;9.250;2023-02-01T12:27:21;7.30;96.60
16267;DHT22;8241;48.786;9.250;2023-02-01T12:30:10;7.30;96.50
16267;DHT22;8241;48.786;9.250;2023-02-01T12:32:54;7.30;96.40
16267;DHT22;8241;48.786;9.250;2023-02-01T12:35:43;7.30;96.20
16267;DHT22;8241;48.786;9.250;2023-02-01T12:38:26;7.30;96.40
16267;DHT22;8241;48.786;9.250;2023-02-01T12:41:10;7.30;96.50
16267;DHT22;8241;48.786;9.250;2023-02-01T12:43:46;7.20;96.50
16267;DHT22;8241;48.786;9.250;2023-02-01T12:46:19;7.20;96.50
16267;DHT22;8241;48.786;9.250;2023-02-01T12:48:57;7.20;96.80
16267;DHT22;8241;48.786;9.250;2023-02-01T12:51:33;7.20;96.90
16267;DHT22;8241;48.786;9.250;2023-02-01T12:54:17;7.30;97.00
16267;DHT22;8241;48.786;9.250;2023-02-01T12:56:49;7.20;96.90
16267;DHT22;8241;48.786;9.250;2023-02-01T12:59:22;7.20;97.30
16267;DHT22;8241;48.786;9.250;2023-02-01T13:01:56;7.20;97.10
16267;DHT22;8241;48.786;9.250;2023-02-01T13:04:53;7.20;97.30
16267;DHT22;8241;48.786;9.250;2023-02-01T13:07:28;7.10;97.40
16267;DHT22;8241;48.786;9.250;2023-02-01T13:10:01;7.20;97.60
16267;DHT22;8241;48.786;9.250;2023-02-01T13:12:44;7.10;98.20
16267;DHT22;8241;48.786;9.250;2023-02-01T13:15:17;7.10;99.00
16267;DHT22;8241;48.786;9.250;2023-02-01T13:17:47;7.00;98.60
16267;DHT22;8241;48.786;9.250;2023-02-01T13:20:22;7.10;98.50
16267;DHT22;8241;48.786;9.250;2023-02-01T13:22:54;7.10;98.10
16267;DHT22;8241;48.786;9.250;2023-02-01T13:25:29;7.10;98.30
16267;DHT22;8241;48.786;9.250;2023-02-01T13:28:16;7.10;98.40
16267;DHT22;8241;48.786;9.250;2023-02-01T13:31:02;7.20;98.00
16267;DHT22;8241;48.786;9.250;2023-02-01T13:33:49;7.20;97.90
16267;DHT22;8241;48.786;9.250;2023-02-01T13:36:38;7.20;98.00
16267;DHT22;8241;48.786;9.250;2023-02-01T13:42:17;7.20;97.50
16267;DHT22;8241;48.786;9.250;2023-02-01T13:44:47;7.10;97.50
16267;DHT22;8241;48.786;9.250;2023-02-01T13:47:28;7.20;97.60
16267;DHT22;8241;48.786;9.250;2023-02-01T13:49:58;7.20;97.60
16267;DHT22;8241;48.786;9.250;2023-02-01T13:52:34;7.20;97.60
16267;DHT22;8241;48.786;9.250;2023-02-01T13:55:29;7.10;98.10
16267;DHT22;8241;48.786;9.250;2023-02-01T13:58:04;7.00;99.00
16267;DHT22;8241;48.786;9.250;2023-02-01T14:00:42;7.00;99.70
16267;DHT22;8241;48.786;9.250;2023-02-01T14:03:13;6.90;99.90
16267;DHT22;8241;48.786;9.250;2023-02-01T14:06:32;6.90;99.90
16267;DHT22;8241;48.786;9.250;2023-02-01T14:09:15;6.90;99.90
16267;DHT22;8241;48.786;9.250;2023-02-01T14:11:48;6.90;99.70
16267;DHT22;8241;48.786;9.250;2023-02-01T14:14:44;6.90;99.90
16267;DHT22;8241;48.786;9.250;2023-02-01T14:17:36;7.00;99.90
16267;DHT22;8241;48.786;9.250;2023-02-01T14:23:37;7.10;99.40
16267;DHT22;8241;48.786;9.250;2023-02-01T14:26:12;7.10;99.30
16267;DHT22;8241;48.786;9.250;2023-02-01T14:28:54;7.10;99.30
16267;DHT22;8241;48.786;9.250;2023-02-01T14:31:44;7.10;98.40
16267;DHT22;8241;48.786;9.250;2023-02-01T14:34:20;7.10;98.50
16267;DHT22;8241;48.786;9.250;2023-02-01T14:36:52;7.10;98.30
16267;DHT22;8241;48.786;9.250;2023-02-01T14:39:37;7.10;98.60
16267;DHT22;8241;48.786;9.250;2023-02-01T14:42:20;7.20;98.70
16267;DHT22;8241;48.786;9.250;2023-02-01T14:44:49;7.20;98.40
16267;DHT22;8241;48.786;9.250;2023-02-01T14:47:32;7.20;98.10
16267;DHT22;8241;48.786;9.250;2023-02-01T14:50:22;7.20;98.00
16267;DHT22;8241;48.786;9.250;2023-02-01T14:55:49;7.10;98.10
16267;DHT22;8241;48.786;9.250;2023-02-01T14:58:35;7.10;98.50
16267;DHT22;8241;48.786;9.250;2023-02-01T15:01:18;7.10;98.70
16267;DHT22;8241;48.786;9.250;2023-02-01T15:03:54;7.10;98.80
16267;DHT22;8241;48.786;9.250;2023-02-01T15:06:26;7.00;99.00
16267;DHT22;8241;48.786;9.250;2023-02-01T15:08:56;7.00;99.10
16267;DHT22;8241;48.786;9.250;2023-02-01T15:11:25;7.10;99.00
16267;DHT22;8241;48.786;9.250;2023-02-01T15:13:53;7.00;98.70
16267;DHT22;8241;48.786;9.250;2023-02-01T15:16:23;7.00;98.70
16267;DHT22;8241;48.786;9.250;2023-02-01T15:18:51;7.00;98.30
16267;DHT22;8241;48.786;9.250;2023-02-01T15:21:46;7.00;98.50
16267;DHT22;8241;48.786;9.250;2023-02-01T15:24:17;7.10;98.60
16267;DHT22;8241;48.786;9.250;2023-02-01T15:26:46;7.00;98.60
16267;DHT22;8241;48.786;9.250;2023-02-01T15:29:15;7.00;98.50
16267;DHT22;8241;48.786;9.250;2023-02-01T15:31:49;7.10;98.80
16267;DHT22;8241;48.786;9.250;2023-02-01T15:34:17;7.10;98.80
16267;DHT22;8241;48.786;9.250;2023-02-01T15:36:45;7.10;98.90
16267;DHT22;8241;48.786;9.250;2023-02-01T15:39:18;7.10;98.80
16267;DHT22;8241;48.786;9.250;2023-02-01T15:41:50;7.00;98.70
16267;DHT22;8241;48.786;9.250;2023-02-01T15:44:30;7.00;98.80
16267;DHT22;8241;48.786;9.250;2023-02-01T15:46:58;7.10;98.70
16267;DHT22;8241;48.786;9.250;2023-02-01T15:49:36;7.10;98.70
16267;DHT22;8241;48.786;9.250;2023-02-01T15:52:15;7.10;98.40
16267;DHT22;8241;48.786;9.250;2023-02-01T15:54:48;7.10;98.20
16267;DHT22;8241;48.786;9.250;2023-02-01T15:57:20;7.10;98.10
16267;DHT22;8241;48.786;9.250;2023-02-01T16:00:00;7.10;98.20
16267;DHT22;8241;48.786;9.250;2023-02-01T16:02:44;7.10;98.10
16267;DHT22;8241;48.786;9.250;2023-02-01T16:05:32;7.10;97.80
16267;DHT22;8241;48.786;9.250;2023-02-01T16:08:03;7.10;98.10
16267;DHT22;8241;48.786;9.250;2023-02-01T16:10:40;7.10;97.80
16267;DHT22;8241;48.786;9.250;2023-02-01T16:13:08;7.10;98.10
16267;DHT22;8241;48.786;9.250;2023-02-01T16:15:37;7.00;98.00
16267;DHT22;8241;48.786;9.250;2023-02-01T16:18:06;7.10;98.00
16267;DHT22;8241;48.786;9.250;2023-02-01T16:20:33;7.10;98.00
16267;DHT22;8241;48.786;9.250;2023-02-01T16:23:02;7.00;97.80
16267;DHT22;8241;48.786;9.250;2023-02-01T16:25:31;7.00;97.80
16267;DHT22;8241;48.786;9.250;2023-02-01T16:27:58;7.00;97.50
16267;DHT22;8241;48.786;9.250;2023-02-01T16:30:25;7.00;97.70
16267;DHT22;8241;48.786;9.250;2023-02-01T16:32:55;7.10;97.20
16267;DHT22;8241;48.786;9.250;2023-02-01T16:35:25;7.10;97.10
16267;DHT22;8241;48.786;9.250;2023-02-01T16:37:53;7.10;97.30
16267;DHT22;8241;48.786;9.250;2023-02-01T16:40:21;7.10;97.30
16267;DHT22;8241;48.786;9.250;2023-02-01T16:42:50;7.10;97.10
16267;DHT22;8241;48.786;9.250;2023-02-01T16:45:18;7.10;97.10
16267;DHT22;8241;48.786;9.250;2023-02-01T16:47:47;7.10;97.30
16267;DHT22;8241;48.786;9.250;2023-02-01T16:50:26;7.10;97.20
16267;DHT22;8241;48.786;9.250;2023-02-01T16:52:53;7.20;97.40
16267;DHT22;8241;48.786;9.250;2023-02-01T16:55:22;7.20;97.30